CheckWX is a tool to help pilots better visualize weather data.  It is not intended as a substitute for an official pre-flight weather briefing.

07:25:37 UTC

LEBR TAF
Bardenas Reales Airport
Bardenas Reales, Spain
TAF LEBR 190500Z 1906/1915 VRB05KT 9999 FEW045

Jun-19@
06:00 UTC

Jun-19 @ 06:00 UTC

Jun-19@
15:00 UTC

Jun-19 @ 15:00 UTC

TAF LEBR 190500Z 1906/1915 VRB05KT 9999 FEW045
Wind
  • Variable at 5 KTS
Cloud Levels
  • Few at 4,500' AGL